Relevés horaires Beauvechain (Belgique)


Relevés horaires à Beauvechain - Dimanche 22 Juill. 2018
Heure UTC1 Température [°C] Vent [km/h] Hum. [%] Pres.4 [hPa] Visi. [Km] Nébu. [octa] Préc.5 [mm] Cond.
2m. Res. Ros. Dir.2 Vit. Moy. Raf.3
23:00 20.5 20.5 13.1 NNO 1.9 -- 1.9 63 1017.5(0.8/3h) 20 -- -- --
22:00 21.3 21.3 12.7 NNO 1.9 -- 3.7 58 1017.2(1.3/3h) 20 -- -- --
21:00 21.2 21.2 12.6 NNO 1.9 -- 13.0 58 1017.1(1.5/3h) 20 -- -- --
20:00 22.0 22.0 11.9 NNO 1.9 -- 7.4 53 1016.6(1.4/3h) 20 -- -- --
19:00 23.9 23.9 12.1 NO 3.7 -- 13.0 48 1015.7(0.8/3h) 20 -- -- --
18:00 25.5 25.5 12.2 N 9.3 -- 13.0 44 1015.2(0.3/3h) 20 -- -- --
17:00 26.1 26.1 12.3 N 7.4 -- 13.0 42 1014.8(-0.3/3h) 20 -- -- --
16:00 27.1 27.1 10.6 NNO 7.4 -- 11.1 36 1014.7(-0.4/3h) 20 -- -- --
15:00 27.3 27.3 10.0 ONO 3.7 -- 11.1 34 1014.8(-0.5/3h) 20 -- -- --
14:00 27.6 27.6 9.4 OSO 5.6 -- 11.1 32 1015.2(-0.5/3h) 20 -- -- --
13:00 26.7 26.7 9.1 NO 3.7 -- 11.1 33 1015.2(-0.6/3h) 20 -- -- --
12:00 26.5 26.5 8.4 ONO 3.7 -- 9.3 32 1015.6(-0.5/3h) 20 -- -- --
11:00 25.7 25.7 8.4 NNO 1.9 -- 7.4 33 1015.7(-0.2/3h) 20 -- -- --
10:00 24.3 24.3 9.0 NO 3.7 -- 7.4 38 1016.1(0.0/3h) 20 -- -- --
09:00 23.2 23.2 8.6 NNO 1.9 -- 5.6 39 1016.2(0.4/3h) 20 -- -- --
08:00 20.6 20.6 8.0 NNO 1.9 -- 5.6 44 1016.2(0.6/3h) 20 -- -- --
07:00 18.7 18.7 11.5 NNO 1.9 -- 5.6 63 1016.2(0.7/3h) 18 -- -- --
06:00 16.1 16.1 10.6 NNO 1.9 -- 5.6 70 1016.1(0.7/3h) 20 -- -- --
05:00 14.5 14.5 9.6 SO 3.7 -- 5.6 72 1016(0.6/3h) 19 -- -- --
04:00 13.8 13.8 9.6 O 3.7 -- 3.7 76 1015.7(0.5/3h) 20 -- -- --
03:00 14.8 14.8 9.8 NNO 1.9 -- 5.6 72 1015.3(0.2/3h) 20 -- -- --
02:00 15.0 15.0 9.8 NNO 1.9 3.7 5.6 71 1015.2(0.2/3h) 20 -- -- --
01:00 15.7 15.7 10.0 NNO 1.9 -- 3.7 69 1015.1(0.3/3h) 20 -- -- --
00:00 16.0 16.0 9.9 O 3.7 -- 13.0 67 1015.1(0.4/3h) 20 -- -- --

1 Coordinated Universal Time. Actuellement il est 16:00 locale et 15:00 UTC.

2 Le vent souffle depuis la direction indiquée vers la direction oposée.

3 Les rafales max. sont disponible 40 min après l'heure du relevé.

4 Pour les stations d'altitude (plus de 600m) le géopotentiel du niveau le plus proche de la pression obligatoire est indiqué.

5 Les stations disposant d'un diffuseur peuvent indiquer "trace". Cela signifie que des précipitations ont touchés le sol mais que la quantité est inférieure à 0.1 mm.

Récapitulatif de la journée
Température [°C] Vent [km/h] Ensoleillement4 [h] Precipitations totale5 [mm] Pression [Hpa]
Min1 Max.2 Moy.3 Max. Min Max.
13.6 28.7 3.7 13.0 0 h 0 min 0 1014.7 1017.5

1 Température minimale relevée entre 18:00 UTC la veille et 18:00 UTC le jour donné.

2 Température maximale relevée entre 06:00 UTC le jour donné et 06:00 UTC le lendemain.

3 Vent moyen de la journée basé sur les relevés horaires.

4 Ensoleillement en heures relevé entre 06:00 UTC la veille et 06:00 UTC le jour donné.

5 Précipitations totales tombées entre 06:00 UTC la jour donné et 06:00 UTC le lendemain.

Graphiques horaires